sensor_id;sensor_type;location;lat;lon;timestamp;P1;durP1;ratioP1;P2;durP2;ratioP2
51943;SDS011;37969;53.132;6.370;2023-04-22T00:01:34;12.35;;;9.52;;
51943;SDS011;37969;53.132;6.370;2023-04-22T00:04:00;10.15;;;8.93;;
51943;SDS011;37969;53.132;6.370;2023-04-22T00:06:26;10.57;;;9.48;;
51943;SDS011;37969;53.132;6.370;2023-04-22T00:08:52;10.27;;;9.35;;
51943;SDS011;37969;53.132;6.370;2023-04-22T00:11:18;13.88;;;10.30;;
51943;SDS011;37969;53.132;6.370;2023-04-22T00:13:45;13.00;;;10.25;;
51943;SDS011;37969;53.132;6.370;2023-04-22T00:16:11;12.50;;;9.82;;
51943;SDS011;37969;53.132;6.370;2023-04-22T00:18:37;10.82;;;9.50;;
51943;SDS011;37969;53.132;6.370;2023-04-22T00:21:03;11.20;;;9.55;;
51943;SDS011;37969;53.132;6.370;2023-04-22T00:23:30;11.55;;;10.32;;
51943;SDS011;37969;53.132;6.370;2023-04-22T00:25:56;10.95;;;9.82;;
51943;SDS011;37969;53.132;6.370;2023-04-22T00:28:22;14.30;;;11.35;;
51943;SDS011;37969;53.132;6.370;2023-04-22T00:30:48;10.95;;;9.85;;
51943;SDS011;37969;53.132;6.370;2023-04-22T00:33:14;11.00;;;8.85;;
51943;SDS011;37969;53.132;6.370;2023-04-22T00:35:41;12.65;;;11.05;;
51943;SDS011;37969;53.132;6.370;2023-04-22T00:38:07;9.93;;;8.93;;
51943;SDS011;37969;53.132;6.370;2023-04-22T00:40:33;12.45;;;11.05;;
51943;SDS011;37969;53.132;6.370;2023-04-22T00:42:59;9.15;;;8.35;;
51943;SDS011;37969;53.132;6.370;2023-04-22T00:45:25;14.13;;;10.88;;
51943;SDS011;37969;53.132;6.370;2023-04-22T00:47:52;11.32;;;9.95;;
51943;SDS011;37969;53.132;6.370;2023-04-22T00:50:18;19.33;;;13.98;;
51943;SDS011;37969;53.132;6.370;2023-04-22T00:52:44;9.88;;;8.88;;
51943;SDS011;37969;53.132;6.370;2023-04-22T00:55:10;10.52;;;9.43;;
51943;SDS011;37969;53.132;6.370;2023-04-22T00:57:37;14.15;;;11.27;;
51943;SDS011;37969;53.132;6.370;2023-04-22T01:00:04;15.00;;;10.48;;
51943;SDS011;37969;53.132;6.370;2023-04-22T01:02:30;14.82;;;13.07;;
51943;SDS011;37969;53.132;6.370;2023-04-22T01:04:56;18.27;;;15.38;;
51943;SDS011;37969;53.132;6.370;2023-04-22T01:07:23;17.90;;;14.30;;
51943;SDS011;37969;53.132;6.370;2023-04-22T01:09:49;11.80;;;10.63;;
51943;SDS011;37969;53.132;6.370;2023-04-22T01:12:15;11.23;;;10.02;;
51943;SDS011;37969;53.132;6.370;2023-04-22T01:14:41;9.07;;;8.23;;
51943;SDS011;37969;53.132;6.370;2023-04-22T01:17:08;11.85;;;10.30;;
51943;SDS011;37969;53.132;6.370;2023-04-22T01:19:36;11.63;;;10.52;;
51943;SDS011;37969;53.132;6.370;2023-04-22T01:22:02;11.07;;;10.05;;
51943;SDS011;37969;53.132;6.370;2023-04-22T01:24:28;11.07;;;10.02;;
51943;SDS011;37969;53.132;6.370;2023-04-22T01:26:54;13.55;;;12.13;;
51943;SDS011;37969;53.132;6.370;2023-04-22T01:29:20;12.73;;;11.13;;
51943;SDS011;37969;53.132;6.370;2023-04-22T01:31:47;13.32;;;11.57;;
51943;SDS011;37969;53.132;6.370;2023-04-22T01:34:13;14.32;;;12.82;;
51943;SDS011;37969;53.132;6.370;2023-04-22T01:36:39;16.35;;;14.20;;
51943;SDS011;37969;53.132;6.370;2023-04-22T01:39:05;15.63;;;13.02;;
51943;SDS011;37969;53.132;6.370;2023-04-22T01:41:32;16.75;;;14.68;;
51943;SDS011;37969;53.132;6.370;2023-04-22T01:43:58;15.93;;;13.52;;
51943;SDS011;37969;53.132;6.370;2023-04-22T01:46:25;21.45;;;16.38;;
51943;SDS011;37969;53.132;6.370;2023-04-22T01:48:51;17.45;;;15.43;;
51943;SDS011;37969;53.132;6.370;2023-04-22T01:51:17;18.63;;;16.30;;
51943;SDS011;37969;53.132;6.370;2023-04-22T01:53:45;17.17;;;15.38;;
51943;SDS011;37969;53.132;6.370;2023-04-22T01:56:12;17.77;;;15.95;;
51943;SDS011;37969;53.132;6.370;2023-04-22T01:58:38;16.23;;;14.52;;
51943;SDS011;37969;53.132;6.370;2023-04-22T02:01:05;16.58;;;13.73;;
51943;SDS011;37969;53.132;6.370;2023-04-22T02:03:31;15.70;;;13.50;;
51943;SDS011;37969;53.132;6.370;2023-04-22T02:05:57;14.90;;;12.30;;
51943;SDS011;37969;53.132;6.370;2023-04-22T02:08:23;13.35;;;12.05;;
51943;SDS011;37969;53.132;6.370;2023-04-22T02:10:49;14.90;;;13.40;;
51943;SDS011;37969;53.132;6.370;2023-04-22T02:13:15;13.15;;;11.77;;
51943;SDS011;37969;53.132;6.370;2023-04-22T02:15:41;14.80;;;10.45;;
51943;SDS011;37969;53.132;6.370;2023-04-22T02:18:10;9.77;;;8.88;;
51943;SDS011;37969;53.132;6.370;2023-04-22T02:20:37;8.50;;;7.70;;
51943;SDS011;37969;53.132;6.370;2023-04-22T02:23:03;8.35;;;7.65;;
51943;SDS011;37969;53.132;6.370;2023-04-22T02:25:29;10.10;;;9.10;;
51943;SDS011;37969;53.132;6.370;2023-04-22T02:27:56;10.10;;;8.45;;
51943;SDS011;37969;53.132;6.370;2023-04-22T02:30:23;15.82;;;14.18;;
51943;SDS011;37969;53.132;6.370;2023-04-22T02:32:49;11.70;;;10.15;;
51943;SDS011;37969;53.132;6.370;2023-04-22T02:35:15;15.63;;;14.02;;
51943;SDS011;37969;53.132;6.370;2023-04-22T02:37:41;13.00;;;11.70;;
51943;SDS011;37969;53.132;6.370;2023-04-22T02:40:08;14.32;;;12.88;;
51943;SDS011;37969;53.132;6.370;2023-04-22T02:42:34;13.63;;;12.25;;
51943;SDS011;37969;53.132;6.370;2023-04-22T02:45:00;18.02;;;14.65;;
51943;SDS011;37969;53.132;6.370;2023-04-22T02:47:26;21.23;;;18.88;;
51943;SDS011;37969;53.132;6.370;2023-04-22T02:49:52;23.42;;;19.48;;
51943;SDS011;37969;53.132;6.370;2023-04-22T02:52:19;24.52;;;21.83;;
51943;SDS011;37969;53.132;6.370;2023-04-22T02:54:45;31.45;;;24.95;;
51943;SDS011;37969;53.132;6.370;2023-04-22T02:57:11;29.25;;;23.92;;
51943;SDS011;37969;53.132;6.370;2023-04-22T02:59:37;30.98;;;23.17;;
51943;SDS011;37969;53.132;6.370;2023-04-22T03:02:03;27.23;;;21.65;;
51943;SDS011;37969;53.132;6.370;2023-04-22T03:04:29;26.10;;;21.98;;
51943;SDS011;37969;53.132;6.370;2023-04-22T03:06:57;33.17;;;24.85;;
51943;SDS011;37969;53.132;6.370;2023-04-22T03:09:23;24.58;;;21.10;;
51943;SDS011;37969;53.132;6.370;2023-04-22T03:11:49;32.45;;;24.77;;
51943;SDS011;37969;53.132;6.370;2023-04-22T03:14:15;27.42;;;22.75;;
51943;SDS011;37969;53.132;6.370;2023-04-22T03:16:41;31.80;;;24.80;;
51943;SDS011;37969;53.132;6.370;2023-04-22T03:19:08;43.90;;;32.13;;
51943;SDS011;37969;53.132;6.370;2023-04-22T03:21:34;48.85;;;34.85;;
51943;SDS011;37969;53.132;6.370;2023-04-22T03:24:00;26.15;;;22.38;;
51943;SDS011;37969;53.132;6.370;2023-04-22T03:26:26;34.78;;;26.25;;
51943;SDS011;37969;53.132;6.370;2023-04-22T03:28:52;38.63;;;29.67;;
51943;SDS011;37969;53.132;6.370;2023-04-22T03:31:18;41.50;;;31.20;;
51943;SDS011;37969;53.132;6.370;2023-04-22T03:33:44;31.38;;;26.15;;
51943;SDS011;37969;53.132;6.370;2023-04-22T03:36:10;31.13;;;26.02;;
51943;SDS011;37969;53.132;6.370;2023-04-22T03:38:37;31.38;;;26.70;;
51943;SDS011;37969;53.132;6.370;2023-04-22T03:41:03;44.00;;;32.97;;
51943;SDS011;37969;53.132;6.370;2023-04-22T03:43:29;48.97;;;33.80;;
51943;SDS011;37969;53.132;6.370;2023-04-22T03:45:55;38.75;;;29.02;;
51943;SDS011;37969;53.132;6.370;2023-04-22T03:48:22;36.50;;;29.70;;
51943;SDS011;37969;53.132;6.370;2023-04-22T03:50:48;35.63;;;28.60;;
51943;SDS011;37969;53.132;6.370;2023-04-22T03:53:14;32.13;;;27.20;;
51943;SDS011;37969;53.132;6.370;2023-04-22T03:55:40;35.63;;;28.27;;
51943;SDS011;37969;53.132;6.370;2023-04-22T03:58:06;31.33;;;26.63;;
51943;SDS011;37969;53.132;6.370;2023-04-22T04:00:32;36.67;;;29.58;;
51943;SDS011;37969;53.132;6.370;2023-04-22T04:02:58;33.33;;;28.27;;
51943;SDS011;37969;53.132;6.370;2023-04-22T04:05:24;33.17;;;26.33;;
51943;SDS011;37969;53.132;6.370;2023-04-22T04:07:50;33.45;;;28.48;;
51943;SDS011;37969;53.132;6.370;2023-04-22T04:10:17;35.63;;;27.52;;
51943;SDS011;37969;53.132;6.370;2023-04-22T04:12:43;33.47;;;26.50;;
51943;SDS011;37969;53.132;6.370;2023-04-22T04:15:09;32.42;;;26.05;;
51943;SDS011;37969;53.132;6.370;2023-04-22T04:17:36;31.40;;;25.33;;
51943;SDS011;37969;53.132;6.370;2023-04-22T04:20:02;25.20;;;20.27;;
51943;SDS011;37969;53.132;6.370;2023-04-22T04:22:28;76.32;;;29.17;;
51943;SDS011;37969;53.132;6.370;2023-04-22T04:24:54;25.40;;;20.38;;
51943;SDS011;37969;53.132;6.370;2023-04-22T04:27:21;47.80;;;31.48;;
51943;SDS011;37969;53.132;6.370;2023-04-22T04:29:48;25.30;;;21.67;;
51943;SDS011;37969;53.132;6.370;2023-04-22T04:32:14;28.90;;;25.38;;
51943;SDS011;37969;53.132;6.370;2023-04-22T04:34:42;27.77;;;24.73;;
51943;SDS011;37969;53.132;6.370;2023-04-22T04:37:08;28.42;;;21.17;;
51943;SDS011;37969;53.132;6.370;2023-04-22T04:39:35;21.73;;;17.73;;
51943;SDS011;37969;53.132;6.370;2023-04-22T04:42:01;21.13;;;18.15;;
51943;SDS011;37969;53.132;6.370;2023-04-22T04:44:28;31.38;;;25.85;;
51943;SDS011;37969;53.132;6.370;2023-04-22T04:46:56;28.17;;;24.15;;
51943;SDS011;37969;53.132;6.370;2023-04-22T04:49:22;32.63;;;25.88;;
51943;SDS011;37969;53.132;6.370;2023-04-22T04:51:49;31.27;;;25.08;;
51943;SDS011;37969;53.132;6.370;2023-04-22T04:54:15;34.08;;;26.45;;
51943;SDS011;37969;53.132;6.370;2023-04-22T04:56:41;35.45;;;26.15;;
51943;SDS011;37969;53.132;6.370;2023-04-22T04:59:08;27.10;;;22.38;;
51943;SDS011;37969;53.132;6.370;2023-04-22T05:01:34;27.33;;;23.00;;
51943;SDS011;37969;53.132;6.370;2023-04-22T05:04:00;27.30;;;22.35;;
51943;SDS011;37969;53.132;6.370;2023-04-22T05:06:26;28.25;;;23.38;;
51943;SDS011;37969;53.132;6.370;2023-04-22T05:08:52;28.05;;;23.75;;
51943;SDS011;37969;53.132;6.370;2023-04-22T05:11:18;28.73;;;22.83;;
51943;SDS011;37969;53.132;6.370;2023-04-22T05:13:44;31.60;;;25.30;;
51943;SDS011;37969;53.132;6.370;2023-04-22T05:16:11;26.52;;;23.73;;
51943;SDS011;37969;53.132;6.370;2023-04-22T05:18:37;26.67;;;22.45;;
51943;SDS011;37969;53.132;6.370;2023-04-22T05:21:04;28.92;;;23.38;;
51943;SDS011;37969;53.132;6.370;2023-04-22T05:23:31;28.50;;;22.88;;
51943;SDS011;37969;53.132;6.370;2023-04-22T05:25:57;27.42;;;23.45;;
51943;SDS011;37969;53.132;6.370;2023-04-22T05:28:23;25.13;;;22.42;;
51943;SDS011;37969;53.132;6.370;2023-04-22T05:30:49;25.98;;;23.17;;
51943;SDS011;37969;53.132;6.370;2023-04-22T05:33:15;26.90;;;21.73;;
51943;SDS011;37969;53.132;6.370;2023-04-22T05:35:42;28.45;;;24.05;;
51943;SDS011;37969;53.132;6.370;2023-04-22T05:38:08;28.02;;;23.75;;
51943;SDS011;37969;53.132;6.370;2023-04-22T05:40:35;29.35;;;22.15;;
51943;SDS011;37969;53.132;6.370;2023-04-22T05:43:01;26.70;;;21.60;;
51943;SDS011;37969;53.132;6.370;2023-04-22T05:45:27;24.08;;;21.60;;
51943;SDS011;37969;53.132;6.370;2023-04-22T05:47:53;24.92;;;21.00;;
51943;SDS011;37969;53.132;6.370;2023-04-22T05:50:19;23.17;;;20.67;;
51943;SDS011;37969;53.132;6.370;2023-04-22T05:52:45;26.98;;;21.88;;
51943;SDS011;37969;53.132;6.370;2023-04-22T05:55:11;23.45;;;20.80;;
51943;SDS011;37969;53.132;6.370;2023-04-22T05:57:38;23.70;;;20.77;;
51943;SDS011;37969;53.132;6.370;2023-04-22T06:00:04;22.58;;;20.15;;
51943;SDS011;37969;53.132;6.370;2023-04-22T06:02:30;21.45;;;19.25;;
51943;SDS011;37969;53.132;6.370;2023-04-22T06:04:56;24.08;;;20.88;;
51943;SDS011;37969;53.132;6.370;2023-04-22T06:07:23;25.17;;;19.95;;
51943;SDS011;37969;53.132;6.370;2023-04-22T06:09:49;25.70;;;20.33;;
51943;SDS011;37969;53.132;6.370;2023-04-22T06:12:15;26.92;;;21.33;;
51943;SDS011;37969;53.132;6.370;2023-04-22T06:14:41;24.65;;;19.70;;
51943;SDS011;37969;53.132;6.370;2023-04-22T06:17:07;26.80;;;22.13;;
51943;SDS011;37969;53.132;6.370;2023-04-22T06:19:34;26.75;;;21.20;;
51943;SDS011;37969;53.132;6.370;2023-04-22T06:22:00;25.42;;;22.17;;
51943;SDS011;37969;53.132;6.370;2023-04-22T06:24:26;27.27;;;20.83;;
51943;SDS011;37969;53.132;6.370;2023-04-22T06:26:52;23.90;;;20.65;;
51943;SDS011;37969;53.132;6.370;2023-04-22T06:29:18;23.33;;;20.83;;
51943;SDS011;37969;53.132;6.370;2023-04-22T06:31:44;24.10;;;21.50;;
51943;SDS011;37969;53.132;6.370;2023-04-22T06:34:10;26.20;;;20.65;;
51943;SDS011;37969;53.132;6.370;2023-04-22T06:36:36;24.55;;;21.05;;
51943;SDS011;37969;53.132;6.370;2023-04-22T06:39:03;20.52;;;18.25;;
51943;SDS011;37969;53.132;6.370;2023-04-22T06:41:30;25.00;;;21.08;;
51943;SDS011;37969;53.132;6.370;2023-04-22T06:43:57;21.67;;;19.35;;
51943;SDS011;37969;53.132;6.370;2023-04-22T06:46:23;26.13;;;22.33;;
51943;SDS011;37969;53.132;6.370;2023-04-22T06:48:49;25.63;;;19.95;;
51943;SDS011;37969;53.132;6.370;2023-04-22T06:51:15;24.02;;;20.08;;
51943;SDS011;37969;53.132;6.370;2023-04-22T06:53:41;24.98;;;20.35;;
51943;SDS011;37969;53.132;6.370;2023-04-22T06:56:08;21.60;;;18.48;;
51943;SDS011;37969;53.132;6.370;2023-04-22T06:58:34;20.75;;;18.08;;
51943;SDS011;37969;53.132;6.370;2023-04-22T07:01:00;23.00;;;18.02;;
51943;SDS011;37969;53.132;6.370;2023-04-22T07:03:26;20.15;;;18.00;;
51943;SDS011;37969;53.132;6.370;2023-04-22T07:05:52;20.77;;;17.17;;
51943;SDS011;37969;53.132;6.370;2023-04-22T07:08:18;19.83;;;17.73;;
51943;SDS011;37969;53.132;6.370;2023-04-22T07:10:44;22.13;;;17.98;;
51943;SDS011;37969;53.132;6.370;2023-04-22T07:13:11;21.02;;;18.75;;
51943;SDS011;37969;53.132;6.370;2023-04-22T07:15:37;26.48;;;19.17;;
51943;SDS011;37969;53.132;6.370;2023-04-22T07:18:03;22.67;;;19.05;;
51943;SDS011;37969;53.132;6.370;2023-04-22T07:20:29;26.85;;;19.75;;
51943;SDS011;37969;53.132;6.370;2023-04-22T07:22:55;21.63;;;18.65;;
51943;SDS011;37969;53.132;6.370;2023-04-22T07:25:21;28.80;;;20.20;;
51943;SDS011;37969;53.132;6.370;2023-04-22T07:27:47;19.00;;;16.73;;
51943;SDS011;37969;53.132;6.370;2023-04-22T07:30:13;19.17;;;16.40;;
51943;SDS011;37969;53.132;6.370;2023-04-22T07:32:40;16.45;;;14.85;;
51943;SDS011;37969;53.132;6.370;2023-04-22T07:35:06;18.10;;;16.35;;
51943;SDS011;37969;53.132;6.370;2023-04-22T07:37:32;19.13;;;16.25;;
51943;SDS011;37969;53.132;6.370;2023-04-22T07:39:58;17.75;;;15.88;;
51943;SDS011;37969;53.132;6.370;2023-04-22T07:42:25;17.30;;;15.45;;
51943;SDS011;37969;53.132;6.370;2023-04-22T07:44:51;16.25;;;14.55;;
51943;SDS011;37969;53.132;6.370;2023-04-22T07:47:17;17.55;;;15.77;;
51943;SDS011;37969;53.132;6.370;2023-04-22T07:49:43;17.13;;;15.35;;
51943;SDS011;37969;53.132;6.370;2023-04-22T07:52:09;17.30;;;15.48;;
51943;SDS011;37969;53.132;6.370;2023-04-22T07:54:35;18.65;;;15.02;;
51943;SDS011;37969;53.132;6.370;2023-04-22T07:57:02;16.83;;;15.02;;
51943;SDS011;37969;53.132;6.370;2023-04-22T07:59:28;18.80;;;13.95;;
51943;SDS011;37969;53.132;6.370;2023-04-22T08:01:54;15.70;;;14.05;;
51943;SDS011;37969;53.132;6.370;2023-04-22T08:04:21;16.73;;;14.93;;
51943;SDS011;37969;53.132;6.370;2023-04-22T08:06:48;16.75;;;15.05;;
51943;SDS011;37969;53.132;6.370;2023-04-22T08:09:14;16.38;;;14.77;;
51943;SDS011;37969;53.132;6.370;2023-04-22T08:11:40;19.35;;;13.15;;
51943;SDS011;37969;53.132;6.370;2023-04-22T08:14:06;21.70;;;14.40;;
51943;SDS011;37969;53.132;6.370;2023-04-22T08:16:32;15.95;;;14.35;;
51943;SDS011;37969;53.132;6.370;2023-04-22T08:18:58;20.88;;;14.43;;
51943;SDS011;37969;53.132;6.370;2023-04-22T08:21:24;18.48;;;14.15;;
51943;SDS011;37969;53.132;6.370;2023-04-22T08:23:52;16.10;;;14.02;;
51943;SDS011;37969;53.132;6.370;2023-04-22T08:26:19;16.83;;;14.35;;
51943;SDS011;37969;53.132;6.370;2023-04-22T08:28:45;16.50;;;14.25;;
51943;SDS011;37969;53.132;6.370;2023-04-22T08:31:11;26.90;;;14.75;;
51943;SDS011;37969;53.132;6.370;2023-04-22T08:33:39;32.15;;;15.20;;
51943;SDS011;37969;53.132;6.370;2023-04-22T08:36:06;18.85;;;14.38;;
51943;SDS011;37969;53.132;6.370;2023-04-22T08:38:33;16.55;;;14.55;;
51943;SDS011;37969;53.132;6.370;2023-04-22T08:40:59;16.35;;;14.75;;
51943;SDS011;37969;53.132;6.370;2023-04-22T08:43:26;16.55;;;14.85;;
51943;SDS011;37969;53.132;6.370;2023-04-22T08:45:52;18.42;;;13.80;;
51943;SDS011;37969;53.132;6.370;2023-04-22T08:48:18;16.13;;;14.52;;
51943;SDS011;37969;53.132;6.370;2023-04-22T08:50:46;15.88;;;14.23;;
51943;SDS011;37969;53.132;6.370;2023-04-22T08:53:13;16.33;;;14.65;;
51943;SDS011;37969;53.132;6.370;2023-04-22T08:55:40;16.58;;;13.85;;
51943;SDS011;37969;53.132;6.370;2023-04-22T08:58:09;15.03;;;13.53;;
51943;SDS011;37969;53.132;6.370;2023-04-22T09:00:36;15.57;;;13.98;;
51943;SDS011;37969;53.132;6.370;2023-04-22T09:03:02;19.90;;;14.52;;
51943;SDS011;37969;53.132;6.370;2023-04-22T09:05:32;15.80;;;14.20;;
51943;SDS011;37969;53.132;6.370;2023-04-22T09:07:58;14.23;;;12.80;;
51943;SDS011;37969;53.132;6.370;2023-04-22T09:10:24;14.32;;;12.70;;
51943;SDS011;37969;53.132;6.370;2023-04-22T09:12:51;14.80;;;13.20;;
51943;SDS011;37969;53.132;6.370;2023-04-22T09:15:18;13.98;;;12.50;;
51943;SDS011;37969;53.132;6.370;2023-04-22T09:17:44;14.77;;;13.15;;
51943;SDS011;37969;53.132;6.370;2023-04-22T09:20:10;15.32;;;13.23;;
51943;SDS011;37969;53.132;6.370;2023-04-22T09:22:39;14.35;;;13.05;;
51943;SDS011;37969;53.132;6.370;2023-04-22T09:25:13;15.50;;;13.63;;
51943;SDS011;37969;53.132;6.370;2023-04-22T09:27:40;15.20;;;12.88;;
51943;SDS011;37969;53.132;6.370;2023-04-22T09:30:06;14.57;;;13.07;;
51943;SDS011;37969;53.132;6.370;2023-04-22T09:32:33;14.77;;;13.27;;
51943;SDS011;37969;53.132;6.370;2023-04-22T09:34:59;14.02;;;12.73;;
51943;SDS011;37969;53.132;6.370;2023-04-22T09:37:25;14.60;;;13.07;;
51943;SDS011;37969;53.132;6.370;2023-04-22T09:39:52;13.85;;;12.15;;
51943;SDS011;37969;53.132;6.370;2023-04-22T09:42:19;17.38;;;12.55;;
51943;SDS011;37969;53.132;6.370;2023-04-22T09:44:46;13.88;;;12.48;;
51943;SDS011;37969;53.132;6.370;2023-04-22T09:47:12;12.57;;;11.27;;
51943;SDS011;37969;53.132;6.370;2023-04-22T09:49:38;12.73;;;11.52;;
51943;SDS011;37969;53.132;6.370;2023-04-22T09:52:05;13.63;;;12.23;;
51943;SDS011;37969;53.132;6.370;2023-04-22T09:54:31;11.65;;;10.55;;
51943;SDS011;37969;53.132;6.370;2023-04-22T09:56:58;11.32;;;10.27;;
51943;SDS011;37969;53.132;6.370;2023-04-22T09:59:25;12.40;;;11.10;;
51943;SDS011;37969;53.132;6.370;2023-04-22T10:01:53;14.95;;;11.15;;
51943;SDS011;37969;53.132;6.370;2023-04-22T10:04:20;14.88;;;11.20;;
51943;SDS011;37969;53.132;6.370;2023-04-22T10:06:47;11.85;;;10.65;;
51943;SDS011;37969;53.132;6.370;2023-04-22T10:09:14;13.60;;;10.50;;
51943;SDS011;37969;53.132;6.370;2023-04-22T10:11:42;12.13;;;10.90;;
51943;SDS011;37969;53.132;6.370;2023-04-22T10:14:09;11.07;;;9.98;;
51943;SDS011;37969;53.132;6.370;2023-04-22T10:16:38;10.70;;;9.70;;
51943;SDS011;37969;53.132;6.370;2023-04-22T10:19:05;10.52;;;9.35;;
51943;SDS011;37969;53.132;6.370;2023-04-22T10:21:32;10.45;;;9.27;;
51943;SDS011;37969;53.132;6.370;2023-04-22T10:23:59;11.38;;;9.90;;
51943;SDS011;37969;53.132;6.370;2023-04-22T10:26:38;11.18;;;9.20;;
51943;SDS011;37969;53.132;6.370;2023-04-22T10:29:06;13.40;;;9.52;;
51943;SDS011;37969;53.132;6.370;2023-04-22T10:31:36;10.88;;;9.60;;
51943;SDS011;37969;53.132;6.370;2023-04-22T10:34:09;10.25;;;9.25;;
51943;SDS011;37969;53.132;6.370;2023-04-22T10:39:18;12.50;;;10.10;;
51943;SDS011;37969;53.132;6.370;2023-04-22T10:41:49;10.85;;;9.80;;
51943;SDS011;37969;53.132;6.370;2023-04-22T10:44:15;9.30;;;8.50;;
51943;SDS011;37969;53.132;6.370;2023-04-22T10:49:19;9.85;;;8.75;;
51943;SDS011;37969;53.132;6.370;2023-04-22T10:51:46;9.95;;;9.00;;
51943;SDS011;37969;53.132;6.370;2023-04-22T10:57:03;9.10;;;8.20;;
51943;SDS011;37969;53.132;6.370;2023-04-22T10:59:30;9.52;;;8.52;;
51943;SDS011;37969;53.132;6.370;2023-04-22T11:02:01;10.43;;;8.70;;
51943;SDS011;37969;53.132;6.370;2023-04-22T11:04:27;8.98;;;8.18;;
51943;SDS011;37969;53.132;6.370;2023-04-22T11:09:42;8.88;;;8.00;;
51943;SDS011;37969;53.132;6.370;2023-04-22T11:14:53;8.65;;;7.75;;
51943;SDS011;37969;53.132;6.370;2023-04-22T11:17:20;9.68;;;7.70;;
51943;SDS011;37969;53.132;6.370;2023-04-22T11:19:46;8.77;;;7.28;;
51943;SDS011;37969;53.132;6.370;2023-04-22T11:22:12;8.05;;;7.25;;
51943;SDS011;37969;53.132;6.370;2023-04-22T11:24:39;8.50;;;6.38;;
51943;SDS011;37969;53.132;6.370;2023-04-22T11:27:05;7.68;;;6.68;;
51943;SDS011;37969;53.132;6.370;2023-04-22T11:29:31;8.73;;;7.65;;
51943;SDS011;37969;53.132;6.370;2023-04-22T11:31:57;10.32;;;8.20;;
51943;SDS011;37969;53.132;6.370;2023-04-22T11:34:23;9.35;;;8.45;;
51943;SDS011;37969;53.132;6.370;2023-04-22T11:36:49;11.38;;;7.88;;
51943;SDS011;37969;53.132;6.370;2023-04-22T11:39:16;8.40;;;7.60;;
51943;SDS011;37969;53.132;6.370;2023-04-22T11:41:42;10.20;;;8.30;;
51943;SDS011;37969;53.132;6.370;2023-04-22T11:44:09;10.25;;;8.18;;
51943;SDS011;37969;53.132;6.370;2023-04-22T11:46:35;10.30;;;7.50;;
51943;SDS011;37969;53.132;6.370;2023-04-22T11:49:12;9.75;;;7.43;;
51943;SDS011;37969;53.132;6.370;2023-04-22T11:51:50;9.10;;;7.18;;
51943;SDS011;37969;53.132;6.370;2023-04-22T11:54:16;10.93;;;7.20;;
51943;SDS011;37969;53.132;6.370;2023-04-22T11:56:42;8.90;;;7.75;;
51943;SDS011;37969;53.132;6.370;2023-04-22T11:59:08;8.55;;;7.75;;
51943;SDS011;37969;53.132;6.370;2023-04-22T12:01:34;8.15;;;7.10;;
51943;SDS011;37969;53.132;6.370;2023-04-22T12:04:01;8.68;;;7.50;;
51943;SDS011;37969;53.132;6.370;2023-04-22T12:06:29;8.80;;;7.47;;
51943;SDS011;37969;53.132;6.370;2023-04-22T12:08:56;11.13;;;7.90;;
51943;SDS011;37969;53.132;6.370;2023-04-22T12:11:24;9.43;;;8.43;;
51943;SDS011;37969;53.132;6.370;2023-04-22T12:13:52;9.93;;;8.10;;
51943;SDS011;37969;53.132;6.370;2023-04-22T12:16:19;9.55;;;8.73;;
51943;SDS011;37969;53.132;6.370;2023-04-22T12:21:13;8.50;;;7.78;;
51943;SDS011;37969;53.132;6.370;2023-04-22T12:23:44;8.38;;;7.57;;
51943;SDS011;37969;53.132;6.370;2023-04-22T12:26:11;8.18;;;7.38;;
51943;SDS011;37969;53.132;6.370;2023-04-22T12:28:37;8.00;;;7.30;;
51943;SDS011;37969;53.132;6.370;2023-04-22T12:31:04;8.00;;;7.20;;
51943;SDS011;37969;53.132;6.370;2023-04-22T12:33:31;9.18;;;8.10;;
51943;SDS011;37969;53.132;6.370;2023-04-22T12:35:57;10.00;;;8.32;;
51943;SDS011;37969;53.132;6.370;2023-04-22T12:38:23;9.52;;;8.60;;
51943;SDS011;37969;53.132;6.370;2023-04-22T12:40:51;10.35;;;8.32;;
51943;SDS011;37969;53.132;6.370;2023-04-22T12:43:17;8.75;;;7.88;;
51943;SDS011;37969;53.132;6.370;2023-04-22T12:45:43;9.80;;;8.48;;
51943;SDS011;37969;53.132;6.370;2023-04-22T12:48:09;9.13;;;8.30;;
51943;SDS011;37969;53.132;6.370;2023-04-22T12:50:35;9.45;;;8.45;;
51943;SDS011;37969;53.132;6.370;2023-04-22T12:53:02;8.40;;;7.70;;
51943;SDS011;37969;53.132;6.370;2023-04-22T12:55:28;9.38;;;8.10;;
51943;SDS011;37969;53.132;6.370;2023-04-22T12:57:54;9.10;;;8.30;;
51943;SDS011;37969;53.132;6.370;2023-04-22T13:00:21;8.88;;;8.07;;
51943;SDS011;37969;53.132;6.370;2023-04-22T13:02:47;9.32;;;8.48;;
51943;SDS011;37969;53.132;6.370;2023-04-22T13:05:14;8.57;;;7.85;;
51943;SDS011;37969;53.132;6.370;2023-04-22T13:07:40;8.65;;;7.65;;
51943;SDS011;37969;53.132;6.370;2023-04-22T13:10:07;10.35;;;8.48;;
51943;SDS011;37969;53.132;6.370;2023-04-22T13:12:33;10.80;;;8.55;;
51943;SDS011;37969;53.132;6.370;2023-04-22T13:15:00;9.20;;;8.40;;
51943;SDS011;37969;53.132;6.370;2023-04-22T13:17:26;9.68;;;8.63;;
51943;SDS011;37969;53.132;6.370;2023-04-22T13:19:52;10.18;;;9.07;;
51943;SDS011;37969;53.132;6.370;2023-04-22T13:22:18;9.85;;;8.90;;
51943;SDS011;37969;53.132;6.370;2023-04-22T13:24:45;13.75;;;9.18;;
51943;SDS011;37969;53.132;6.370;2023-04-22T13:27:11;10.05;;;8.65;;
51943;SDS011;37969;53.132;6.370;2023-04-22T13:29:37;9.65;;;8.75;;
51943;SDS011;37969;53.132;6.370;2023-04-22T13:32:04;10.57;;;9.48;;
51943;SDS011;37969;53.132;6.370;2023-04-22T13:34:30;12.80;;;9.18;;
51943;SDS011;37969;53.132;6.370;2023-04-22T13:36:56;13.00;;;9.32;;
51943;SDS011;37969;53.132;6.370;2023-04-22T13:39:23;9.95;;;8.90;;
51943;SDS011;37969;53.132;6.370;2023-04-22T13:41:50;11.60;;;9.20;;
51943;SDS011;37969;53.132;6.370;2023-04-22T13:44:16;11.52;;;9.07;;
51943;SDS011;37969;53.132;6.370;2023-04-22T13:46:42;11.20;;;8.75;;
51943;SDS011;37969;53.132;6.370;2023-04-22T13:49:09;12.77;;;9.63;;
51943;SDS011;37969;53.132;6.370;2023-04-22T13:51:35;10.55;;;9.45;;
51943;SDS011;37969;53.132;6.370;2023-04-22T13:54:02;10.35;;;9.43;;
51943;SDS011;37969;53.132;6.370;2023-04-22T13:56:28;12.00;;;10.80;;
51943;SDS011;37969;53.132;6.370;2023-04-22T13:58:54;11.65;;;10.45;;
51943;SDS011;37969;53.132;6.370;2023-04-22T14:01:20;12.65;;;10.73;;
51943;SDS011;37969;53.132;6.370;2023-04-22T14:03:47;12.88;;;11.55;;
51943;SDS011;37969;53.132;6.370;2023-04-22T14:06:14;12.65;;;11.45;;
51943;SDS011;37969;53.132;6.370;2023-04-22T14:08:40;12.93;;;11.40;;
51943;SDS011;37969;53.132;6.370;2023-04-22T14:11:06;15.10;;;13.50;;
51943;SDS011;37969;53.132;6.370;2023-04-22T14:13:33;16.73;;;13.68;;
51943;SDS011;37969;53.132;6.370;2023-04-22T14:15:59;18.80;;;14.27;;
51943;SDS011;37969;53.132;6.370;2023-04-22T14:18:27;16.83;;;15.10;;
51943;SDS011;37969;53.132;6.370;2023-04-22T14:20:53;19.75;;;15.82;;
51943;SDS011;37969;53.132;6.370;2023-04-22T14:23:20;21.05;;;17.92;;
51943;SDS011;37969;53.132;6.370;2023-04-22T14:25:46;19.02;;;17.05;;
51943;SDS011;37969;53.132;6.370;2023-04-22T14:28:14;18.52;;;16.63;;
51943;SDS011;37969;53.132;6.370;2023-04-22T14:30:40;19.70;;;17.27;;
51943;SDS011;37969;53.132;6.370;2023-04-22T14:33:06;18.15;;;16.17;;
51943;SDS011;37969;53.132;6.370;2023-04-22T14:35:33;18.35;;;15.65;;
51943;SDS011;37969;53.132;6.370;2023-04-22T14:37:59;20.00;;;16.98;;
51943;SDS011;37969;53.132;6.370;2023-04-22T14:40:25;19.55;;;16.63;;